createdAt,value
2023-02-01T00:03:24.889Z,97071.28
2023-02-01T00:08:28.469Z,97066.09
2023-02-01T00:13:33.946Z,97059.84
2023-02-01T00:18:37.523Z,97050.63
2023-02-01T00:23:41.208Z,97054.13
2023-02-01T00:28:45.280Z,97055.66
2023-02-01T00:33:49.530Z,97064.63
2023-02-01T00:38:52.799Z,97064.16
2023-02-01T00:43:56.063Z,97056.88
2023-02-01T00:48:59.491Z,97055.25
2023-02-01T00:54:02.762Z,97048.28
2023-02-01T00:59:06.290Z,97038.06
2023-02-01T01:04:09.724Z,97040.75
2023-02-01T01:09:13.178Z,97033.97
2023-02-01T01:14:16.501Z,97023.44
2023-02-01T01:19:19.741Z,97012.78
2023-02-01T01:24:22.884Z,97010.69
2023-02-01T01:29:26.075Z,97012.56
2023-02-01T01:34:29.076Z,97011.78
2023-02-01T01:39:32.159Z,97020.28
2023-02-01T01:45:06.098Z,97019.25
2023-02-01T01:50:17.470Z,97012.53
2023-02-01T01:55:23.665Z,97018.69
2023-02-01T02:00:27.694Z,96999.41
2023-02-01T02:05:33.309Z,96989.88
2023-02-01T02:10:37.742Z,96977.13
2023-02-01T02:15:49.944Z,96972.72
2023-02-01T02:20:53.097Z,96979.44
2023-02-01T02:26:24.243Z,96977.22
2023-02-01T02:31:55.613Z,96971.66
2023-02-01T02:37:31.947Z,96979.56
2023-02-01T02:43:01.057Z,96983.03
2023-02-01T02:48:30.121Z,96989.16
2023-02-01T02:54:05.551Z,96981.94
2023-02-01T02:59:11.238Z,96977.22
2023-02-01T03:04:16.183Z,96979.66
2023-02-01T03:09:37.846Z,96990.22
2023-02-01T03:14:44.884Z,96992.91
2023-02-01T03:19:52.301Z,96983.16
2023-02-01T03:25:00.735Z,97011.75
2023-02-01T03:30:16.789Z,97005.16
2023-02-01T03:35:28.887Z,96995.47
2023-02-01T03:40:36.587Z,97010.72
2023-02-01T03:45:44.933Z,97001.66
2023-02-01T03:50:55.626Z,97013.28
2023-02-01T03:55:59.852Z,97014.69
2023-02-01T04:01:03.284Z,97011.78
2023-02-01T04:06:10.567Z,97008.06
2023-02-01T04:11:13.788Z,97017.03
2023-02-01T04:16:17.780Z,97017.97
2023-02-01T04:21:20.941Z,97022.31
2023-02-01T04:26:24.553Z,97026.41
2023-02-01T04:31:27.842Z,97025.69
2023-02-01T04:36:31.111Z,97036.06
2023-02-01T04:41:34.184Z,97025.88
2023-02-01T04:46:37.351Z,97032.53
2023-02-01T04:51:40.370Z,97027.31
2023-02-01T04:56:44.198Z,97027.81
2023-02-01T05:01:49.061Z,97035.16
2023-02-01T05:06:52.619Z,97023.44
2023-02-01T05:11:55.771Z,97013.69
2023-02-01T05:16:58.793Z,97003.84
2023-02-01T05:22:02.009Z,97021.50
2023-02-01T05:27:05.418Z,97028.13
2023-02-01T05:32:21.516Z,97036.38
2023-02-01T05:37:26.302Z,97034.06
2023-02-01T05:42:29.287Z,97039.66
2023-02-01T05:47:33.154Z,97046.59
2023-02-01T05:52:36.384Z,97048.69
2023-02-01T05:57:39.511Z,97054.97
2023-02-01T06:02:42.761Z,97057.38
2023-02-01T06:07:46.160Z,97056.31
2023-02-01T06:12:49.605Z,97064.13
2023-02-01T06:17:52.930Z,97060.19
2023-02-01T06:22:57.610Z,97068.91
2023-02-01T06:28:02.484Z,97110.19
2023-02-01T06:33:05.847Z,97127.53
2023-02-01T06:38:09.237Z,97128.53
2023-02-01T06:43:12.493Z,97134.84
2023-02-01T06:48:16.159Z,97128.31
2023-02-01T06:53:19.358Z,97111.03
2023-02-01T06:58:22.580Z,97122.66
2023-02-01T07:03:25.906Z,97118.59
2023-02-01T07:08:30.348Z,97117.09
2023-02-01T07:13:33.845Z,97116.03
2023-02-01T07:18:37.103Z,97134.31
2023-02-01T07:23:40.465Z,97124.41
2023-02-01T07:28:43.455Z,97127.09
2023-02-01T07:33:46.880Z,97123.31
2023-02-01T07:38:50.206Z,97114.47
2023-02-01T07:43:53.846Z,97109.81
2023-02-01T07:48:56.962Z,97107.91
2023-02-01T07:54:00.061Z,97088.88
2023-02-01T07:59:04.165Z,97082.50
2023-02-01T08:04:07.300Z,97068.19
2023-02-01T08:09:12.196Z,97056.25
2023-02-01T08:14:15.367Z,97066.72
2023-02-01T08:19:18.531Z,97049.03
2023-02-01T08:24:23.095Z,97030.97
2023-02-01T08:29:27.573Z,97015.91
2023-02-01T08:34:30.737Z,97021.56
2023-02-01T08:39:33.700Z,97039.59
2023-02-01T08:44:37.084Z,97003.31
2023-02-01T08:49:40.995Z,97014.03
2023-02-01T08:54:44.601Z,96985.59
2023-02-01T08:59:47.604Z,96974.88
2023-02-01T09:04:50.581Z,97050.66
2023-02-01T09:09:53.787Z,97035.94
2023-02-01T09:14:57.294Z,97036.63
2023-02-01T09:20:00.463Z,97019.19
2023-02-01T09:25:03.979Z,97033.59
2023-02-01T09:30:08.961Z,97031.31
2023-02-01T09:35:12.147Z,97046.31
2023-02-01T09:40:18.088Z,97023.81
2023-02-01T09:45:51.158Z,97002.53
2023-02-01T09:50:59.812Z,96990.59
2023-02-01T09:56:11.933Z,96985.63
2023-02-01T10:01:27.165Z,96959.41
2023-02-01T10:06:58.845Z,96948.78
2023-02-01T10:12:32.269Z,96933.09
2023-02-01T10:18:06.352Z,96935.38
2023-02-01T10:23:32.933Z,96982.72
2023-02-01T10:28:37.505Z,96959.75
2023-02-01T10:33:45.727Z,96935.75
2023-02-01T10:38:49.458Z,96940.34
2023-02-01T10:43:58.429Z,96907.63
2023-02-01T10:49:04.890Z,96922.63
2023-02-01T10:54:34.836Z,96938.53
2023-02-01T10:59:38.145Z,96908.00
2023-02-01T11:04:41.367Z,96920.78
2023-02-01T11:09:51.600Z,96907.78
2023-02-01T11:15:23.792Z,96895.22
2023-02-01T11:20:32.988Z,96887.63
2023-02-01T11:25:37.708Z,96910.13
2023-02-01T11:30:45.186Z,96903.56
2023-02-01T11:35:49.514Z,96913.97
2023-02-01T11:40:52.694Z,96900.66
2023-02-01T11:46:15.838Z,96885.28
2023-02-01T11:51:33.915Z,96874.66
2023-02-01T11:57:01.832Z,96882.44
2023-02-01T12:02:38.065Z,96900.09
2023-02-01T12:07:47.335Z,96943.84
2023-02-01T12:12:56.175Z,96918.31
2023-02-01T12:18:44.306Z,96935.03
2023-02-01T12:24:08.156Z,96939.53
2023-02-01T12:29:39.026Z,96934.81
2023-02-01T12:34:51.043Z,96948.13
2023-02-01T12:40:18.666Z,96944.88
2023-02-01T12:45:58.096Z,96945.81
2023-02-01T12:51:14.145Z,96952.16
2023-02-01T12:56:28.190Z,96946.16
2023-02-01T13:01:56.512Z,96945.75
2023-02-01T13:07:25.808Z,96965.97
2023-02-01T13:12:46.171Z,96972.94
2023-02-01T13:17:52.659Z,96968.22
2023-02-01T13:23:04.545Z,96966.72
2023-02-01T13:28:16.226Z,96957.94
2023-02-01T13:33:53.560Z,96980.47
2023-02-01T13:39:20.589Z,97001.72
2023-02-01T13:44:49.944Z,97004.19
2023-02-01T13:49:56.334Z,97012.41
2023-02-01T13:55:21.431Z,97012.94
2023-02-01T14:00:30.632Z,97014.47
2023-02-01T14:05:33.791Z,97023.00
2023-02-01T14:10:46.392Z,97008.41
2023-02-01T14:16:04.941Z,97016.22
2023-02-01T14:21:29.358Z,97004.03
2023-02-01T14:26:35.734Z,97038.75
2023-02-01T14:32:01.202Z,97043.75
2023-02-01T14:37:09.951Z,97063.25
2023-02-01T14:42:22.697Z,97070.06
2023-02-01T14:47:25.869Z,97077.50
2023-02-01T14:52:35.276Z,97073.31
2023-02-01T14:57:41.976Z,97089.31
2023-02-01T15:02:48.834Z,97093.84
2023-02-01T15:07:52.948Z,97102.22
2023-02-01T15:12:56.126Z,97103.22
2023-02-01T15:18:00.611Z,97108.88
2023-02-01T15:23:06.444Z,97103.00
2023-02-01T15:28:17.488Z,97106.34
2023-02-01T15:33:21.547Z,97109.34
2023-02-01T15:38:24.812Z,97106.19
2023-02-01T15:43:29.498Z,97110.78
2023-02-01T15:48:39.149Z,97122.28
2023-02-01T15:53:59.683Z,97148.69
2023-02-01T15:59:08.135Z,97131.44
2023-02-01T16:04:17.551Z,97137.06
2023-02-01T16:09:24.073Z,97140.47
2023-02-01T16:14:28.156Z,97138.34
2023-02-01T16:19:31.318Z,97139.53
2023-02-01T16:24:34.344Z,97133.88
2023-02-01T16:29:37.431Z,97154.41
2023-02-01T16:34:40.625Z,97164.78
2023-02-01T16:39:43.671Z,97192.13
2023-02-01T16:44:46.816Z,97201.34
2023-02-01T16:49:50.113Z,97190.88
2023-02-01T16:54:56.215Z,97192.13
2023-02-01T17:00:22.241Z,97190.31
2023-02-01T17:05:36.028Z,97212.34
2023-02-01T17:10:39.310Z,97212.72
2023-02-01T17:16:05.279Z,97219.09
2023-02-01T17:21:10.730Z,97223.47
2023-02-01T17:26:14.108Z,97218.91
2023-02-01T17:31:18.602Z,97225.75
2023-02-01T17:36:22.055Z,97234.06
2023-02-01T17:41:27.448Z,97251.50
2023-02-01T17:46:33.359Z,97249.00
2023-02-01T17:51:37.023Z,97251.78
2023-02-01T17:56:43.342Z,97263.66
2023-02-01T18:01:50.813Z,97279.03
2023-02-01T18:06:53.764Z,97279.03
2023-02-01T18:11:56.804Z,97267.59
2023-02-01T18:16:59.974Z,97274.16
2023-02-01T18:22:03.161Z,97287.03
2023-02-01T18:27:06.073Z,97279.34
2023-02-01T18:32:10.926Z,97278.69
2023-02-01T18:37:16.903Z,97292.03
2023-02-01T18:42:25.066Z,97309.13
2023-02-01T18:47:27.981Z,97304.75
2023-02-01T18:52:31.129Z,97323.59
2023-02-01T18:57:34.291Z,97329.09
2023-02-01T19:02:38.034Z,97324.84
2023-02-01T19:07:42.871Z,97319.00
2023-02-01T19:12:46.448Z,97312.66
2023-02-01T19:17:52.526Z,97323.00
2023-02-01T19:22:55.679Z,97310.84
2023-02-01T19:27:59.155Z,97312.81
2023-02-01T19:33:03.175Z,97313.50
2023-02-01T19:38:06.602Z,97306.38
2023-02-01T19:43:09.727Z,97280.47
2023-02-01T19:48:12.960Z,97311.56
2023-02-01T19:53:16.377Z,97323.38
2023-02-01T19:58:19.544Z,97316.38
2023-02-01T20:03:23.521Z,97322.72
2023-02-01T20:08:27.746Z,97338.13
2023-02-01T20:13:30.843Z,97351.19
2023-02-01T20:18:34.000Z,97362.13
2023-02-01T20:23:37.169Z,97353.34
2023-02-01T20:28:41.619Z,97369.81
2023-02-01T20:33:44.751Z,97394.59
2023-02-01T20:38:47.994Z,97390.50
2023-02-01T20:43:51.184Z,97391.31
2023-02-01T20:48:55.458Z,97389.31
2023-02-01T20:53:58.521Z,97385.59
2023-02-01T20:59:01.684Z,97410.56
2023-02-01T21:04:04.817Z,97413.00
2023-02-01T21:09:08.237Z,97413.38
2023-02-01T21:14:11.862Z,97405.56
2023-02-01T21:19:15.225Z,97393.44
2023-02-01T21:24:18.304Z,97402.78
2023-02-01T21:29:22.538Z,97415.66
2023-02-01T21:34:27.125Z,97425.84
2023-02-01T21:39:30.283Z,97444.75
2023-02-01T21:44:33.370Z,97451.59
2023-02-01T21:49:37.749Z,97435.22
2023-02-01T21:54:43.292Z,97444.63
2023-02-01T21:59:46.377Z,97451.41
2023-02-01T22:04:49.410Z,97444.06
2023-02-01T22:09:52.538Z,97447.09
2023-02-01T22:14:55.838Z,97448.91
2023-02-01T22:19:58.812Z,97455.03
2023-02-01T22:25:01.716Z,97457.44
2023-02-01T22:30:06.234Z,97459.47
2023-02-01T22:35:09.866Z,97466.25
2023-02-01T22:40:14.997Z,97471.38
2023-02-01T22:45:18.101Z,97483.09
2023-02-01T22:50:21.392Z,97489.03
2023-02-01T22:55:24.852Z,97503.59
2023-02-01T23:00:28.877Z,97490.28
2023-02-01T23:05:31.982Z,97488.19
2023-02-01T23:10:35.422Z,97477.31
2023-02-01T23:15:41.332Z,97488.59
2023-02-01T23:20:45.047Z,97501.31
2023-02-01T23:25:51.923Z,97514.91
2023-02-01T23:30:55.151Z,97516.16
2023-02-01T23:36:01.057Z,97519.22
2023-02-01T23:41:07.853Z,97511.44
2023-02-01T23:46:11.639Z,97533.34
2023-02-01T23:51:15.681Z,97538.50
2023-02-01T23:56:33.669Z,97537.03
